Time;durP1;ratioP1;P1;durP2;ratioP2;P2;SDS_P1;SDS_P2;PMS_P1;PMS_P2;Temp;Humidity;BMP_temperature;BMP_pressure;BME280_temperature;BME280_humidity;BME280_pressure;Samples;Min_cycle;Max_cycle;Signal;HPM_P1;HPM_P2
2022/03/24 00:02:13;;;;;;;51.10;35.10;;;;;;;6.92;55.50;102893.53;5063404;28;20028;-79
2022/03/24 00:04:39;;;;;;;53.08;36.55;;;;;;;6.91;55.28;102885.63;5037683;28;20040;-79
2022/03/24 00:07:05;;;;;;;52.50;35.28;;;;;;;6.84;55.65;102895.50;5050989;28;20488;-78
2022/03/24 00:09:30;;;;;;;48.08;35.45;;;;;;;6.83;55.58;102889.38;5051064;28;20116;-78
2022/03/24 00:11:59;;;;;;;57.42;36.95;;;;;;;6.80;55.16;102889.44;5052021;28;20112;-79
2022/03/24 00:14:25;;;;;;;52.83;35.95;;;;;;;6.80;55.74;102884.16;5060985;28;20061;-78
2022/03/24 00:16:50;;;;;;;52.90;36.45;;;;;;;6.78;56.37;102879.84;5051243;28;20067;-78
2022/03/24 00:19:19;;;;;;;58.67;41.00;;;;;;;6.69;56.77;102886.22;5040495;28;20064;-78
2022/03/24 00:21:45;;;;;;;62.33;40.88;;;;;;;6.66;57.05;102887.19;5050039;28;20029;-78
2022/03/24 00:24:11;;;;;;;63.25;42.15;;;;;;;6.61;57.58;102886.47;5051564;28;20074;-77
2022/03/24 00:26:37;;;;;;;56.22;39.17;;;;;;;6.54;57.70;102886.66;5048715;28;20049;-78
2022/03/24 00:29:03;;;;;;;53.45;37.35;;;;;;;6.52;57.45;102884.06;5048199;28;20032;-79
2022/03/24 00:31:29;;;;;;;53.00;37.40;;;;;;;6.44;57.71;102886.03;5051043;28;20033;-78
2022/03/24 00:33:55;;;;;;;55.33;37.10;;;;;;;6.40;57.82;102879.97;5050956;28;20021;-77
2022/03/24 00:36:21;;;;;;;58.83;38.42;;;;;;;6.38;57.90;102884.44;5043405;28;20024;-79
2022/03/24 00:38:46;;;;;;;50.22;36.78;;;;;;;6.34;57.97;102874.00;5049347;28;20022;-78
2022/03/24 00:41:12;;;;;;;52.10;37.03;;;;;;;6.27;58.43;102876.78;5050815;28;20029;-78
2022/03/24 00:43:39;;;;;;;51.13;36.58;;;;;;;6.29;58.01;102875.00;5050743;28;20103;-78
2022/03/24 00:46:05;;;;;;;52.20;36.42;;;;;;;6.29;57.89;102879.38;5051026;28;20090;-79
2022/03/24 00:48:31;;;;;;;47.42;32.30;;;;;;;6.25;57.64;102875.97;5050501;28;20379;-78
2022/03/24 00:50:56;;;;;;;51.05;34.65;;;;;;;6.18;57.96;102869.13;5050707;28;20017;-78
2022/03/24 00:53:23;;;;;;;48.53;32.90;;;;;;;6.18;58.20;102877.03;5044254;28;20029;-78
2022/03/24 00:55:48;;;;;;;50.10;32.53;;;;;;;6.03;58.52;102862.44;5046966;28;20032;-78
2022/03/24 00:58:14;;;;;;;48.22;32.85;;;;;;;6.02;58.91;102871.25;5051005;28;20079;-78
2022/03/24 01:00:42;;;;;;;49.15;32.75;;;;;;;5.96;58.76;102862.59;5045525;28;20029;-78
2022/03/24 01:03:08;;;;;;;51.50;33.03;;;;;;;5.87;59.24;102866.34;5049393;28;20036;-78
2022/03/24 01:05:37;;;;;;;50.90;33.70;;;;;;;5.84;59.23;102866.41;5049586;28;20021;-78
2022/03/24 01:08:04;;;;;;;50.22;35.38;;;;;;;5.75;60.36;102867.50;5037154;28;20036;-78
2022/03/24 01:10:29;;;;;;;53.42;33.63;;;;;;;5.72;60.52;102867.56;5052387;28;20080;-78
2022/03/24 01:12:59;;;;;;;53.22;33.70;;;;;;;5.66;60.71;102857.16;5053422;28;20029;-79
2022/03/24 01:15:26;;;;;;;51.67;34.00;;;;;;;5.65;60.63;102861.56;5055115;28;20476;-79
2022/03/24 01:17:51;;;;;;;51.95;34.95;;;;;;;5.62;60.45;102859.00;5052979;28;20388;-79
2022/03/24 01:20:17;;;;;;;49.42;33.67;;;;;;;5.61;60.45;102857.25;5054086;28;20027;-79
2022/03/24 01:22:43;;;;;;;48.15;35.20;;;;;;;5.61;60.28;102859.03;5051791;28;20035;-79
2022/03/24 01:25:08;;;;;;;53.85;34.42;;;;;;;5.61;60.21;102856.41;5052041;28;20029;-79
2022/03/24 01:27:34;;;;;;;54.42;33.75;;;;;;;5.56;60.24;102861.78;5052609;28;20069;-79
2022/03/24 01:30:00;;;;;;;51.65;34.38;;;;;;;5.52;60.26;102853.06;5053708;28;20091;-80
2022/03/24 01:32:26;;;;;;;50.95;34.25;;;;;;;5.52;60.37;102849.59;5046028;28;20033;-79
2022/03/24 01:34:52;;;;;;;56.38;34.25;;;;;;;5.52;60.08;102847.81;5054478;28;20025;-79
2022/03/24 01:37:18;;;;;;;51.22;34.17;;;;;;;5.49;60.48;102845.22;5054145;28;20544;-79
2022/03/24 01:39:43;;;;;;;52.28;34.78;;;;;;;5.48;60.58;102846.16;5055457;28;20092;-79
2022/03/24 01:42:08;;;;;;;48.65;34.75;;;;;;;5.45;60.88;102842.72;5054564;28;20016;-80
2022/03/24 01:44:34;;;;;;;51.60;35.78;;;;;;;5.46;60.98;102841.81;5039543;28;20451;-80
2022/03/24 01:46:59;;;;;;;50.55;35.15;;;;;;;5.43;61.40;102832.22;5047838;28;20104;-80
2022/03/24 01:49:36;;;;;;;52.93;36.97;;;;;;;5.32;60.91;102818.41;5034832;28;20025;-79
2022/03/24 01:52:02;;;;;;;55.78;35.65;;;;;;;5.40;60.75;102832.28;5035098;28;20338;-79
2022/03/24 01:54:31;;;;;;;58.97;36.67;;;;;;;5.37;60.90;102830.56;5039407;28;20017;-79
2022/03/24 01:56:58;;;;;;;51.40;35.42;;;;;;;5.35;60.92;102829.75;5052763;28;20415;-79
2022/03/24 01:59:24;;;;;;;49.13;34.33;;;;;;;5.31;61.54;102827.22;5053617;28;20047;-79
2022/03/24 02:01:50;;;;;;;48.75;34.03;;;;;;;5.29;61.42;102832.50;5045588;28;20384;-79
2022/03/24 02:04:17;;;;;;;44.95;32.50;;;;;;;5.24;61.75;102834.38;5033976;28;20060;-80
2022/03/24 02:06:42;;;;;;;47.47;33.70;;;;;;;5.20;61.61;102832.72;5034197;28;20029;-79
2022/03/24 02:09:08;;;;;;;46.60;32.70;;;;;;;5.18;61.79;102829.28;5034593;28;20159;-79
2022/03/24 02:11:34;;;;;;;51.75;35.22;;;;;;;5.12;61.89;102822.34;5039672;28;20167;-80
2022/03/24 02:14:01;;;;;;;49.95;34.20;;;;;;;5.09;61.49;102827.69;5054140;28;20400;-79
2022/03/24 02:16:34;;;;;;;56.58;34.85;;;;;;;5.06;61.68;102819.00;5043933;28;20036;-79
2022/03/24 02:19:15;;;;;;;50.95;34.30;;;;;;;5.06;61.49;102825.09;5033453;28;20172;-79
2022/03/24 02:21:41;;;;;;;53.33;35.85;;;;;;;5.02;61.89;102826.09;5048147;28;20025;-80
2022/03/24 02:24:08;;;;;;;46.28;32.80;;;;;;;5.04;61.33;102823.44;5053236;28;20123;-79
2022/03/24 02:26:35;;;;;;;47.25;35.05;;;;;;;5.00;61.73;102823.50;5052947;28;20049;-79
2022/03/24 02:29:01;;;;;;;47.17;33.88;;;;;;;5.00;61.64;102826.13;5040545;28;20125;-79
2022/03/24 02:31:30;;;;;;;54.20;35.10;;;;;;;4.96;61.84;102824.47;5033177;28;20044;-79
2022/03/24 02:34:37;;;;;;;48.10;34.15;;;;;;;4.93;61.28;102818.38;5033249;28;20056;-78
2022/03/24 02:36:42;;;;;;;47.83;34.28;;;;;;;4.90;61.76;102824.59;5033220;28;20439;-79
2022/03/24 02:39:07;;;;;;;51.08;34.92;;;;;;;4.87;62.17;102829.91;5033172;28;20030;-80
2022/03/24 02:41:32;;;;;;;47.17;33.28;;;;;;;4.82;62.00;102830.00;5032893;28;20029;-79
2022/03/24 02:43:58;;;;;;;45.13;34.63;;;;;;;4.77;62.33;102823.09;5032669;28;20071;-80
2022/03/24 02:46:23;;;;;;;52.92;34.45;;;;;;;4.77;62.11;102825.75;5044347;28;20052;-79
2022/03/24 02:48:49;;;;;;;50.58;35.05;;;;;;;4.72;61.72;102823.19;5052774;28;20471;-79
2022/03/24 02:51:14;;;;;;;47.08;34.47;;;;;;;4.73;62.45;102827.56;5052668;28;20115;-79
2022/03/24 02:53:39;;;;;;;57.00;35.45;;;;;;;4.70;61.88;102830.25;5033506;28;20422;-80
2022/03/24 02:56:05;;;;;;;49.30;33.88;;;;;;;4.66;62.32;102825.09;5032402;28;20033;-80
2022/03/24 02:58:30;;;;;;;52.13;32.88;;;;;;;4.62;61.99;102819.88;5044224;28;20053;-79
2022/03/24 03:00:55;;;;;;;53.30;36.20;;;;;;;4.53;62.31;102811.28;5032464;28;20030;-79
2022/03/24 03:03:23;;;;;;;53.78;33.42;;;;;;;4.52;62.54;102818.31;5032370;28;20029;-79
2022/03/24 03:05:48;;;;;;;51.03;33.17;;;;;;;4.52;62.31;102817.47;5032912;28;20037;-78
2022/03/24 03:08:14;;;;;;;50.35;33.45;;;;;;;4.50;62.32;102820.13;5032319;28;20048;-80
2022/03/24 03:10:40;;;;;;;52.60;34.40;;;;;;;4.46;61.99;102831.59;5032385;28;20033;-80
2022/03/24 03:13:06;;;;;;;56.45;34.35;;;;;;;4.43;62.43;102826.41;5032352;28;20025;-78
2022/03/24 03:15:31;;;;;;;51.80;35.28;;;;;;;4.35;62.62;102823.91;5032410;28;20052;-79
2022/03/24 03:17:57;;;;;;;53.92;36.60;;;;;;;4.30;62.34;102825.75;5032931;28;20476;-79
2022/03/24 03:20:24;;;;;;;49.63;34.88;;;;;;;4.31;62.98;102821.38;5032582;28;20500;-79
2022/03/24 03:22:50;;;;;;;52.53;34.60;;;;;;;4.26;62.42;102824.97;5030879;28;20025;-78
2022/03/24 03:25:15;;;;;;;60.55;34.90;;;;;;;4.22;62.76;102818.00;5121075;22;20306;-85
2022/03/24 03:27:40;;;;;;;56.50;36.97;;;;;;;4.16;62.93;102815.47;5041458;28;20017;-84
2022/03/24 03:30:09;;;;;;;53.17;37.08;;;;;;;4.17;62.97;102825.09;5036384;28;20093;-84
2022/03/24 03:32:34;;;;;;;53.28;36.20;;;;;;;4.13;63.28;102823.44;5035214;28;20018;-84
2022/03/24 03:34:59;;;;;;;56.20;37.40;;;;;;;4.14;63.04;102830.41;5040060;28;20026;-85
2022/03/24 03:37:25;;;;;;;53.38;38.22;;;;;;;4.09;64.14;102832.25;5036455;28;20018;-85
2022/03/24 03:39:51;;;;;;;56.78;35.92;;;;;;;4.07;64.06;102831.44;5035933;28;20097;-85
2022/03/24 03:42:17;;;;;;;50.25;35.33;;;;;;;4.05;63.95;102820.06;5036359;28;20026;-83
2022/03/24 03:44:43;;;;;;;48.17;34.63;;;;;;;4.00;63.76;102825.41;5036755;28;20038;-84
2022/03/24 03:47:09;;;;;;;52.53;36.17;;;;;;;4.01;63.88;102819.28;5037071;28;20057;-84
2022/03/24 03:49:35;;;;;;;52.63;35.58;;;;;;;4.00;64.00;102832.44;5037576;28;20018;-83
2022/03/24 03:52:02;;;;;;;53.65;36.55;;;;;;;3.96;64.66;102831.59;5043979;28;20044;-83
2022/03/24 03:54:27;;;;;;;62.92;37.35;;;;;;;3.97;64.87;102830.72;5048010;28;20031;-84
2022/03/24 03:56:55;;;;;;;54.50;36.78;;;;;;;3.95;64.50;102826.41;5043156;28;20025;-84
2022/03/24 03:59:20;;;;;;;53.72;35.70;;;;;;;3.88;63.70;102826.50;5053507;28;20026;-84
2022/03/24 04:01:46;;;;;;;57.88;36.13;;;;;;;3.85;64.60;102829.16;5018943;28;20037;-84
2022/03/24 04:04:12;;;;;;;57.95;36.15;;;;;;;3.83;64.85;102825.69;5023399;28;20085;-84
2022/03/24 04:06:38;;;;;;;55.25;36.83;;;;;;;3.80;65.03;102828.38;5037306;28;20025;-83
2022/03/24 04:09:04;;;;;;;56.58;38.78;;;;;;;3.76;64.96;102828.44;5036906;28;20029;-84
2022/03/24 04:11:29;;;;;;;60.70;37.00;;;;;;;3.75;64.72;102829.31;5037155;28;20018;-85
2022/03/24 04:13:54;;;;;;;56.55;37.45;;;;;;;3.72;64.81;102825.00;5036447;28;20049;-84
2022/03/24 04:16:20;;;;;;;58.70;37.42;;;;;;;3.75;64.78;102829.31;5036940;28;20045;-84
2022/03/24 04:18:49;;;;;;;54.90;37.30;;;;;;;3.74;64.65;102836.34;5037044;28;20054;-84
2022/03/24 04:21:16;;;;;;;56.58;37.20;;;;;;;3.68;64.87;102836.44;5036988;28;20022;-84
2022/03/24 04:23:42;;;;;;;51.50;36.17;;;;;;;3.69;65.22;102831.16;5036405;28;20040;-84
2022/03/24 04:26:10;;;;;;;54.75;35.97;;;;;;;3.67;64.96;102821.56;5035807;28;20097;-85
2022/03/24 04:28:36;;;;;;;53.97;36.97;;;;;;;3.65;65.33;102823.38;5036791;28;20022;-84
2022/03/24 04:31:02;;;;;;;51.22;35.70;;;;;;;3.67;64.75;102827.69;5036706;28;20032;-84
2022/03/24 04:33:31;;;;;;;53.88;37.13;;;;;;;3.65;64.91;102826.84;5036296;28;20046;-84
2022/03/24 04:35:58;;;;;;;53.75;37.65;;;;;;;3.60;65.08;102827.84;5035958;28;20021;-84
2022/03/24 04:38:24;;;;;;;54.47;36.95;;;;;;;3.57;64.87;102825.25;5036967;28;20026;-84
2022/03/24 04:40:50;;;;;;;51.58;35.70;;;;;;;3.54;64.76;102827.91;5036689;28;20049;-83
2022/03/24 04:43:15;;;;;;;52.28;37.25;;;;;;;3.51;65.21;102832.34;5036290;28;20093;-85
2022/03/24 04:45:41;;;;;;;55.45;37.90;;;;;;;3.45;65.14;102829.78;5040137;28;20022;-83
2022/03/24 04:48:07;;;;;;;56.40;35.90;;;;;;;3.42;65.17;102831.59;5040624;28;20073;-83
2022/03/24 04:50:33;;;;;;;52.45;35.72;;;;;;;3.42;65.15;102832.47;5040185;28;20093;-84
2022/03/24 04:52:58;;;;;;;58.80;35.47;;;;;;;3.40;65.18;102833.34;5040744;28;20056;-84
2022/03/24 04:55:23;;;;;;;57.10;34.38;;;;;;;3.33;65.53;102830.84;5039538;28;20052;-84
2022/03/24 04:57:49;;;;;;;52.83;34.50;;;;;;;3.29;66.23;102828.28;5040732;28;20026;-84
2022/03/24 05:00:17;;;;;;;54.08;34.25;;;;;;;3.23;66.16;102830.97;5040646;28;20014;-84
2022/03/24 05:02:47;;;;;;;59.45;35.78;;;;;;;3.22;65.85;102829.25;5040348;28;20022;-84
2022/03/24 05:05:12;;;;;;;53.83;34.70;;;;;;;3.19;66.52;102830.16;5055780;28;20041;-84
2022/03/24 05:07:39;;;;;;;60.08;36.35;;;;;;;3.17;66.76;102831.09;5039306;28;20033;-84
2022/03/24 05:10:05;;;;;;;61.60;36.95;;;;;;;3.13;66.79;102825.88;5039526;28;20041;-84
2022/03/24 05:12:31;;;;;;;54.83;35.83;;;;;;;3.20;66.31;102834.53;5039434;28;20033;-84
2022/03/24 05:14:57;;;;;;;55.08;35.67;;;;;;;3.15;66.93;102826.69;5040445;28;20065;-84
2022/03/24 05:17:23;;;;;;;55.53;34.97;;;;;;;3.18;66.13;102832.78;5040320;28;20062;-83
2022/03/24 05:19:49;;;;;;;62.53;35.53;;;;;;;3.18;66.58;102833.69;5040302;28;20029;-84
2022/03/24 05:22:15;;;;;;;51.03;33.47;;;;;;;3.18;66.66;102827.53;5039277;28;20049;-84
2022/03/24 05:24:41;;;;;;;50.55;34.50;;;;;;;3.19;66.48;102831.91;5039775;28;20036;-85
2022/03/24 05:27:07;;;;;;;52.13;34.15;;;;;;;3.20;66.16;102836.25;5039674;28;20101;-84
2022/03/24 05:29:33;;;;;;;57.17;36.08;;;;;;;3.14;67.17;102845.09;5039354;28;20030;-83
2022/03/24 05:31:58;;;;;;;58.60;36.83;;;;;;;3.14;67.73;102848.59;5039377;28;20053;-83
2022/03/24 05:34:24;;;;;;;61.08;36.75;;;;;;;3.14;66.85;102847.72;5039257;28;20046;-83
2022/03/24 05:36:50;;;;;;;55.75;35.53;;;;;;;3.14;67.33;102840.72;5039470;28;20060;-83
2022/03/24 05:39:15;;;;;;;55.50;36.00;;;;;;;3.07;67.52;102848.72;5039000;28;20029;-84
2022/03/24 05:41:41;;;;;;;55.42;37.17;;;;;;;3.08;67.99;102847.81;5039018;28;20026;-83
2022/03/24 05:44:07;;;;;;;56.85;35.97;;;;;;;3.06;67.67;102853.06;5039347;28;20018;-84
2022/03/24 05:46:35;;;;;;;57.33;37.10;;;;;;;3.04;67.68;102852.22;5038285;28;20029;-83
2022/03/24 05:49:03;;;;;;;58.85;35.95;;;;;;;2.97;67.29;102850.56;5055486;28;20034;-84
2022/03/24 05:51:28;;;;;;;49.03;36.03;;;;;;;2.95;67.14;102849.72;5039746;28;20041;-84
2022/03/24 05:53:54;;;;;;;57.17;36.70;;;;;;;2.92;67.28;102850.63;5022062;28;20153;-83
2022/03/24 05:56:20;;;;;;;56.90;36.70;;;;;;;2.90;67.31;102862.03;5038483;28;20038;-84
2022/03/24 05:58:46;;;;;;;53.00;36.30;;;;;;;2.92;66.79;102861.13;5038811;28;20010;-84
2022/03/24 06:01:14;;;;;;;58.22;37.65;;;;;;;2.89;67.06;102857.66;5039618;28;20032;-85
2022/03/24 06:03:39;;;;;;;55.72;37.33;;;;;;;2.95;66.84;102860.22;5038562;28;20073;-84
2022/03/24 06:06:06;;;;;;;61.85;39.45;;;;;;;2.97;67.21;102864.56;5039708;28;20017;-84
2022/03/24 06:08:35;;;;;;;61.55;38.13;;;;;;;2.97;66.77;102869.81;5039354;28;20021;-84
2022/03/24 06:11:00;;;;;;;59.87;39.77;;;;;;;2.97;67.35;102863.69;5054851;28;20030;-85
2022/03/24 06:13:26;;;;;;;54.67;37.63;;;;;;;2.97;67.56;102866.31;5033528;28;20034;-85
2022/03/24 06:15:51;;;;;;;53.03;37.50;;;;;;;3.00;67.62;102865.41;5032666;28;20245;-85
2022/03/24 06:18:17;;;;;;;54.60;37.17;;;;;;;3.00;67.27;102868.03;5034723;28;20041;-83
2022/03/24 06:20:45;;;;;;;58.00;38.67;;;;;;;3.01;67.44;102870.63;5038922;28;20030;-84
2022/03/24 06:23:12;;;;;;;53.28;38.25;;;;;;;3.03;67.97;102874.13;5037065;28;20022;-83
2022/03/24 06:25:37;;;;;;;54.55;37.20;;;;;;;3.06;67.86;102874.06;5035494;28;20052;-83
2022/03/24 06:28:08;;;;;;;58.50;39.22;;;;;;;3.08;68.55;102869.69;5033657;28;20026;-84
2022/03/24 06:30:34;;;;;;;65.13;37.92;;;;;;;3.13;67.94;102870.50;5033847;28;20041;-83
2022/03/24 06:32:59;;;;;;;58.40;39.70;;;;;;;3.14;67.76;102872.22;5032882;28;20030;-84
2022/03/24 06:35:25;;;;;;;55.17;37.33;;;;;;;3.17;67.97;102867.84;5031790;28;20034;-83
2022/03/24 06:37:52;;;;;;;58.30;40.13;;;;;;;3.21;68.36;102875.63;5032092;28;20034;-83
2022/03/24 06:40:18;;;;;;;56.05;38.83;;;;;;;3.26;68.09;102868.56;5031089;28;20026;-85
2022/03/24 06:42:44;;;;;;;57.80;40.50;;;;;;;3.31;67.97;102876.38;5034896;28;20026;-85
2022/03/24 06:45:11;;;;;;;57.28;38.70;;;;;;;3.35;68.39;102867.59;5035362;28;20054;-84
2022/03/24 06:47:40;;;;;;;63.33;40.25;;;;;;;3.40;68.16;102873.66;5035384;28;20077;-84
2022/03/24 06:50:11;;;;;;;62.83;39.15;;;;;;;3.47;69.07;102869.19;5033707;28;20034;-85
2022/03/24 06:52:43;;;;;;;57.53;38.63;;;;;;;3.54;68.46;102869.97;5034738;28;20060;-84
2022/03/24 06:55:10;;;;;;;54.58;39.70;;;;;;;3.58;69.09;102871.63;5033076;28;20397;-84
2022/03/24 06:57:49;;;;;;;57.28;39.88;;;;;;;3.64;68.43;102880.28;5038632;28;20018;-84
2022/03/24 07:00:15;;;;;;;58.75;42.17;;;;;;;3.70;69.51;102879.34;5048481;22;20092;-66
2022/03/24 07:02:45;;;;;;;58.72;41.05;;;;;;;3.77;69.79;102881.00;5034735;28;20030;-66
2022/03/24 07:05:14;;;;;;;;;;;;;;;3.85;66.96;102880.88;5042101;28;20040;-67
2022/03/24 07:07:40;;;;;;;58.80;42.05;;;;;;;3.91;69.92;102877.28;5053302;28;19920;-67
2022/03/24 07:10:07;;;;;;;63.88;41.42;;;;;;;3.99;69.48;102885.91;5055152;28;20514;-66
2022/03/24 07:12:32;;;;;;;61.58;43.13;;;;;;;4.06;69.89;102877.00;5055171;28;20029;-66
2022/03/24 07:14:57;;;;;;;69.82;45.58;;;;;;;4.15;69.86;102881.28;5049756;28;20032;-65
2022/03/24 07:17:23;;;;;;;73.65;44.03;;;;;;;4.24;69.66;102881.97;5052344;28;20087;-66
2022/03/24 07:19:48;;;;;;;68.28;45.47;;;;;;;4.34;69.21;102885.31;5055198;28;20033;-67
2022/03/24 07:22:14;;;;;;;64.68;45.05;;;;;;;4.43;68.87;102887.78;5054115;28;20071;-66
2022/03/24 07:24:40;;;;;;;63.15;44.72;;;;;;;4.56;69.05;102888.44;5054961;28;20044;-67
2022/03/24 07:27:05;;;;;;;63.33;44.33;;;;;;;4.72;68.67;102882.88;5029496;28;20037;-67
2022/03/24 07:29:31;;;;;;;65.75;44.78;;;;;;;4.85;68.89;102886.16;5036605;28;20124;-66
2022/03/24 07:31:56;;;;;;;61.75;43.42;;;;;;;5.05;68.94;102885.75;5036753;28;20021;-67
2022/03/24 07:34:23;;;;;;;60.75;43.65;;;;;;;5.26;68.48;102890.56;5037332;28;20100;-67
2022/03/24 07:36:48;;;;;;;58.90;42.35;;;;;;;5.49;67.91;102889.19;5036920;28;20033;-67
2022/03/24 07:39:13;;;;;;;59.40;43.45;;;;;;;5.73;67.53;102887.78;5038618;28;20042;-66
2022/03/24 07:41:38;;;;;;;59.33;41.45;;;;;;;6.02;66.96;102894.13;5037039;28;20025;-65
2022/03/24 07:44:04;;;;;;;56.97;42.45;;;;;;;6.29;66.56;102884.66;5038132;28;20567;-65
2022/03/24 07:46:30;;;;;;;60.53;42.53;;;;;;;6.59;66.06;102882.13;5042254;28;20064;-65
2022/03/24 07:48:55;;;;;;;61.65;41.67;;;;;;;6.94;65.39;102878.47;5040363;28;20065;-65
2022/03/24 07:51:21;;;;;;;58.25;41.13;;;;;;;7.23;65.12;102882.94;5038901;28;20017;-65
2022/03/24 07:53:49;;;;;;;61.22;40.17;;;;;;;7.59;64.11;102879.19;5040637;28;20029;-65
2022/03/24 07:56:21;;;;;;;51.15;36.53;;;;;;;7.92;61.92;102882.53;5039962;28;20045;-65
2022/03/24 07:58:46;;;;;;;61.38;37.70;;;;;;;8.23;61.05;102878.88;5038593;28;20040;-64
2022/03/24 08:01:12;;;;;;;54.00;35.25;;;;;;;8.55;58.73;102884.03;5033540;28;20038;-65
2022/03/24 08:03:38;;;;;;;48.53;34.33;;;;;;;8.92;58.17;102883.53;5038337;28;20063;-65
2022/03/24 08:06:03;;;;;;;49.72;34.08;;;;;;;9.27;56.50;102884.00;5037706;28;20033;-66
2022/03/24 08:08:33;;;;;;;50.72;33.90;;;;;;;9.63;53.51;102883.50;5038258;28;20080;-65
2022/03/24 08:10:59;;;;;;;;;;;;;;;9.74;56.87;102891.00;5038416;28;20056;-65
2022/03/24 08:13:24;;;;;;;47.28;31.67;;;;;;;10.27;52.39;102887.06;5037967;28;19921;-65
2022/03/24 08:15:50;;;;;;;47.47;32.25;;;;;;;10.58;51.43;102885.78;5038479;28;20030;-66
2022/03/24 08:18:17;;;;;;;43.30;32.25;;;;;;;10.88;51.00;102883.56;5040206;28;20410;-65
2022/03/24 08:20:43;;;;;;;48.75;32.75;;;;;;;11.22;48.81;102885.50;5039809;28;20102;-65
2022/03/24 08:23:10;;;;;;;48.63;32.05;;;;;;;11.55;47.67;102882.19;5034021;28;20076;-65
2022/03/24 08:25:37;;;;;;;46.47;32.60;;;;;;;11.84;45.72;102886.13;5018322;28;20018;-65
2022/03/24 08:28:02;;;;;;;43.33;32.10;;;;;;;12.10;45.60;102883.97;5012078;28;20121;-65
2022/03/24 08:30:28;;;;;;;45.58;31.33;;;;;;;12.44;43.00;102882.25;5012941;28;20440;-65
2022/03/24 08:32:54;;;;;;;45.22;32.85;;;;;;;12.80;42.78;102886.59;5027448;28;20034;-65
2022/03/24 08:35:19;;;;;;;40.17;31.00;;;;;;;13.08;41.35;102888.63;5032113;28;20042;-64
2022/03/24 08:37:44;;;;;;;45.25;32.38;;;;;;;13.35;41.83;102888.06;5033233;28;20029;-63
2022/03/24 08:40:12;;;;;;;42.80;31.43;;;;;;;13.56;41.02;102885.16;5035817;28;20064;-64
2022/03/24 08:42:39;;;;;;;44.13;32.80;;;;;;;13.87;43.04;102889.59;5037744;28;20630;-64
2022/03/24 08:45:07;;;;;;;39.50;29.48;;;;;;;14.23;41.50;102891.06;5037058;28;20038;-64
2022/03/24 08:47:33;;;;;;;41.92;30.15;;;;;;;14.50;39.35;102879.66;5041495;28;20044;-63
2022/03/24 08:49:58;;;;;;;38.85;29.73;;;;;;;14.75;39.20;102884.38;5042230;28;20029;-64
2022/03/24 08:52:24;;;;;;;40.37;30.23;;;;;;;15.05;38.63;102878.94;5040818;28;20028;-63
2022/03/24 08:54:49;;;;;;;40.20;29.45;;;;;;;15.25;36.96;102877.66;5044121;28;20898;-63
2022/03/24 08:57:15;;;;;;;38.40;29.58;;;;;;;15.59;37.51;102874.59;5040247;28;20060;-63
2022/03/24 08:59:40;;;;;;;39.47;29.27;;;;;;;15.80;37.42;102883.09;5037948;28;20053;-63
2022/03/24 09:02:06;;;;;;;40.87;31.43;;;;;;;15.95;36.32;102879.38;5039172;28;20067;-63
2022/03/24 09:04:31;;;;;;;38.60;30.73;;;;;;;16.15;36.06;102879.88;5043898;28;20295;-63
2022/03/24 09:06:56;;;;;;;42.47;29.63;;;;;;;16.33;35.13;102877.75;5038802;28;20029;-64
2022/03/24 09:09:22;;;;;;;41.88;29.33;;;;;;;16.34;34.49;102882.16;5036015;28;20033;-64
2022/03/24 09:11:49;;;;;;;37.88;30.00;;;;;;;16.69;35.45;102887.75;5047009;28;20033;-64
2022/03/24 09:14:15;;;;;;;36.47;28.75;;;;;;;16.94;32.34;102880.69;5046660;28;20022;-64
2022/03/24 09:16:41;;;;;;;39.45;29.15;;;;;;;17.19;33.09;102883.31;5047087;28;20029;-65
2022/03/24 09:19:06;;;;;;;33.88;27.50;;;;;;;17.52;33.23;102886.31;5046691;28;20040;-64
2022/03/24 09:21:31;;;;;;;37.25;28.88;;;;;;;17.69;32.00;102885.09;5045810;28;20029;-64
2022/03/24 09:23:57;;;;;;;45.70;30.05;;;;;;;17.85;32.46;102888.34;5034801;28;20053;-64
2022/03/24 09:26:22;;;;;;;36.80;28.73;;;;;;;18.01;31.21;102890.75;5025158;28;20034;-64
2022/03/24 09:28:49;;;;;;;34.77;28.07;;;;;;;18.37;31.91;102888.03;5027099;28;20501;-64
2022/03/24 09:31:15;;;;;;;36.40;27.98;;;;;;;18.58;30.87;102894.44;5042002;28;20277;-63
2022/03/24 09:33:40;;;;;;;36.67;30.33;;;;;;;18.68;29.99;102879.31;5046820;28;20101;-63
2022/03/24 09:36:05;;;;;;;38.08;29.42;;;;;;;19.05;31.07;102891.69;5050869;28;20326;-64
2022/03/24 09:38:31;;;;;;;40.58;29.15;;;;;;;19.20;29.69;102877.00;5031587;28;20042;-64
2022/03/24 09:40:56;;;;;;;30.17;25.13;;;;;;;19.53;27.41;102879.72;5035097;28;20387;-63
2022/03/24 09:43:22;;;;;;;29.17;24.40;;;;;;;19.68;26.34;102875.75;5020166;28;20070;-63
2022/03/24 09:45:48;;;;;;;26.85;23.05;;;;;;;19.89;25.18;102877.69;5026411;28;20075;-63
2022/03/24 09:48:15;;;;;;;26.83;21.80;;;;;;;20.18;26.40;102877.03;5034893;28;20100;-63
2022/03/24 09:50:44;;;;;;;26.27;21.67;;;;;;;20.24;25.17;102876.53;5033784;28;20033;-63
2022/03/24 09:53:09;;;;;;;26.05;23.17;;;;;;;20.49;24.36;102883.34;5034581;28;20090;-63
2022/03/24 09:55:36;;;;;;;28.10;23.07;;;;;;;20.81;26.29;102882.41;5033047;28;20029;-63
2022/03/24 09:58:03;;;;;;;23.42;19.52;;;;;;;20.93;23.16;102875.91;5030153;28;20300;-63
2022/03/24 10:00:30;;;;;;;24.63;20.17;;;;;;;20.99;22.76;102878.06;5012488;28;20087;-63
2022/03/24 10:03:16;;;;;;;25.67;21.48;;;;;;;21.21;24.15;102876.16;5034237;28;20391;-63
2022/03/24 10:06:02;;;;;;;26.00;20.98;;;;;;;21.29;23.28;102873.59;5034436;28;20037;-63
2022/03/24 10:08:28;;;;;;;21.17;18.98;;;;;;;21.36;21.49;102879.31;5024216;28;20434;-63
2022/03/24 10:10:59;;;;;;;21.27;18.98;;;;;;;21.41;22.75;102879.75;5033867;28;20536;-63
2022/03/24 10:13:44;;;;;;;23.02;18.88;;;;;;;21.60;23.52;102877.09;5034255;28;20108;-63
2022/03/24 10:16:11;;;;;;;19.77;16.50;;;;;;;21.65;20.50;102876.69;5020619;28;20073;-64
2022/03/24 10:18:36;;;;;;;20.63;15.77;;;;;;;21.68;19.89;102870.97;5014386;28;20468;-63
2022/03/24 10:21:03;;;;;;;18.20;16.40;;;;;;;21.79;19.53;102875.41;5014767;28;20061;-63
2022/03/24 10:23:33;;;;;;;21.50;17.20;;;;;;;22.04;20.17;102867.72;5014363;28;20280;-63
2022/03/24 10:26:04;;;;;;;18.63;15.32;;;;;;;22.10;19.86;102869.81;5014444;28;20033;-63
2022/03/24 10:28:30;;;;;;;18.95;15.88;;;;;;;22.23;18.92;102858.69;5013295;28;20030;-63
2022/03/24 10:30:59;;;;;;;21.27;16.53;;;;;;;22.21;19.07;102869.66;5012363;28;20029;-63
2022/03/24 10:33:33;;;;;;;20.90;16.17;;;;;;;22.29;19.36;102861.69;5011574;28;20691;-63
2022/03/24 10:36:17;;;;;;;19.63;17.52;;;;;;;22.45;20.91;102862.94;5012632;28;20029;-63
2022/03/24 10:38:45;;;;;;;19.30;17.25;;;;;;;22.55;19.00;102866.50;5028074;28;20433;-63
2022/03/24 10:41:18;;;;;;;17.77;15.85;;;;;;;22.58;19.69;102866.19;5030738;28;20056;-63
2022/03/24 10:43:44;;;;;;;22.88;16.63;;;;;;;22.73;18.52;102862.00;5031560;28;20040;-63
2022/03/24 10:46:29;;;;;;;19.75;17.00;;;;;;;22.86;20.15;102853.50;5025831;28;20033;-63
2022/03/24 10:48:55;;;;;;;21.52;16.83;;;;;;;22.85;18.72;102853.69;5009603;28;20026;-63
2022/03/24 10:51:28;;;;;;;20.67;16.95;;;;;;;22.98;19.41;102856.03;5020577;28;20029;-63
2022/03/24 10:54:02;;;;;;;19.83;15.70;;;;;;;23.23;17.94;102851.78;5030862;28;20444;-63
2022/03/24 10:56:37;;;;;;;19.77;16.73;;;;;;;23.36;18.72;102848.69;5031078;28;20091;-63
2022/03/24 10:59:05;;;;;;;18.92;15.68;;;;;;;23.33;17.53;102852.59;5031758;28;20053;-63
2022/03/24 11:01:32;;;;;;;24.95;18.48;;;;;;;23.41;17.55;102852.66;5029708;28;20439;-62
2022/03/24 11:03:57;;;;;;;19.40;16.02;;;;;;;23.25;17.31;102844.38;5031011;28;20030;-63
2022/03/24 11:06:23;;;;;;;23.20;18.60;;;;;;;23.12;17.43;102854.72;5031386;28;20136;-63
2022/03/24 11:08:57;;;;;;;22.98;18.55;;;;;;;23.46;18.87;102852.19;5023949;28;20036;-63
2022/03/24 11:11:23;;;;;;;22.40;17.73;;;;;;;23.41;18.12;102851.81;5024609;28;20453;-63
2022/03/24 11:13:52;;;;;;;23.17;17.02;;;;;;;23.46;17.93;102847.66;5029936;28;20476;-63